Time;durP1;ratioP1;P1;durP2;ratioP2;P2;SDS_P1;SDS_P2;PMS_P1;PMS_P2;Temp;Humidity;BMP_temperature;BMP_pressure;BME280_temperature;BME280_humidity;BME280_pressure;Samples;Min_cycle;Max_cycle;Signal;HPM_P1;HPM_P2
2022/11/11 00:00:32;;;;;;;;;;;;;;;8.70;100.00;101893.31;5590210;31;34857;-70
2022/11/11 00:03:57;;;;;;;;;;;;;;;8.67;100.00;101900.63;5579076;31;34336;-70
2022/11/11 00:07:20;;;;;;;;;;;;;;;8.57;100.00;101903.12;5590206;31;34930;-70
2022/11/11 00:10:44;;;;;;;;;;;;;;;8.63;100.00;101907.13;5590300;31;34145;-70
2022/11/11 00:14:07;;;;;;;;;;;;;;;8.69;100.00;101896.91;5578699;31;34920;-70
2022/11/11 00:25:06;;;;;;;;;;;;;;;8.33;100.00;101910.28;5590751;31;34752;-70
2022/11/11 00:28:28;;;;;;;;;;;;;;;8.24;100.00;101917.09;5575948;31;35121;-70
2022/11/11 00:35:52;;;;;;;;;;;;;;;8.02;100.00;101922.31;5589991;31;34462;-70
2022/11/11 00:39:17;;;;;;;;;;;;;;;7.85;100.00;101922.69;5590080;31;34851;-70
2022/11/11 00:42:42;;;;;;;;;;;;;;;7.82;100.00;101917.63;5578819;31;34946;-70
2022/11/11 00:53:39;;;;;;;;;;;;;;;7.89;100.00;101928.63;5576221;31;32759;-70
2022/11/11 00:57:05;;;;;;;;;;;;;;;7.99;100.00;101925.16;5589962;31;34955;-70
2022/11/11 01:00:28;;;;;;;;;;;;;;;8.00;100.00;101933.94;5589846;31;34173;-70
2022/11/11 01:03:51;;;;;;;;;;;;;;;7.99;100.00;101935.72;5589792;31;34624;-70
2022/11/11 01:07:17;;;;;;;;;;;;;;;7.97;100.00;101929.72;5575902;31;33968;-70
2022/11/11 01:10:42;;;;;;;;;;;;;;;7.82;100.00;101921.13;5589626;31;34491;-70
2022/11/11 01:14:06;;;;;;;;;;;;;;;7.78;100.00;101919.66;5589586;31;34955;-70
2022/11/11 01:17:29;;;;;;;;;;;;;;;7.72;100.00;101921.91;5589766;31;34392;-70
2022/11/11 01:21:00;;;;;;;;;;;;;;;7.71;100.00;101920.22;5575904;31;35116;-70
2022/11/11 01:24:24;;;;;;;;;;;;;;;7.64;100.00;101919.84;5589371;31;34802;-70
2022/11/11 01:27:49;;;;;;;;;;;;;;;7.67;100.00;101924.03;5578070;31;34847;-70
2022/11/11 01:31:14;;;;;;;;;;;;;;;7.64;100.00;101925.13;5589367;31;34763;-70
2022/11/11 01:34:38;;;;;;;;;;;;;;;7.65;100.00;101933.88;5577866;31;34824;-70
2022/11/11 01:38:02;;;;;;;;;;;;;;;7.46;100.00;101934.34;5589263;31;34921;-70
2022/11/11 01:41:34;;;;;;;;;;;;;;;7.34;100.00;101933.44;5588246;31;34349;-70
2022/11/11 01:44:58;;;;;;;;;;;;;;;7.49;100.00;101930.66;5589133;31;34502;-70
2022/11/11 01:52:11;;;;;;;;;;;;;;;7.39;100.00;101930.47;5575369;31;34329;-70
2022/11/11 01:55:34;;;;;;;;;;;;;;;7.57;100.00;101923.88;5588917;31;34680;-70
2022/11/11 01:59:01;;;;;;;;;;;;;;;7.51;100.00;101924.28;5588936;31;34380;-70
2022/11/11 02:02:29;;;;;;;;;;;;;;;7.39;100.00;101920.75;5588793;31;34275;-70
2022/11/11 02:05:55;;;;;;;;;;;;;;;7.24;100.00;101921.84;5577202;31;34982;-71
2022/11/11 02:09:21;;;;;;;;;;;;;;;7.34;100.00;101916.75;5588736;31;34599;-70
2022/11/11 02:16:28;;;;;;;;;;;;;;;7.37;100.00;101932.38;5574935;31;34173;-70
2022/11/11 02:19:53;;;;;;;;;;;;;;;7.36;100.00;101931.53;5588496;31;34571;-70
2022/11/11 02:23:24;;;;;;;;;;;;;;;7.47;100.00;101935.19;5588536;31;34268;-70
2022/11/11 02:26:49;;;;;;;;;;;;;;;7.35;100.00;101929.00;5577356;31;34207;-70
2022/11/11 02:30:20;;;;;;;;;;;;;;;7.42;100.00;101936.38;5588365;31;34233;-70
2022/11/11 02:33:47;;;;;;;;;;;;;;;7.50;100.00;101937.63;5588583;31;34393;-70
2022/11/11 02:37:13;;;;;;;;;;;;;;;7.47;100.00;101940.47;5576839;31;34996;-70
2022/11/11 02:41:55;;;;;;;;;;;;;;;7.45;100.00;101934.47;5588581;31;34213;-70
2022/11/11 02:44:21;;;;;;;;;;;;;;;7.31;100.00;101941.56;5588038;31;34950;-70
2022/11/11 02:47:46;;;;;;;;;;;;;;;7.34;100.00;101946.66;5588118;31;34172;-70
2022/11/11 02:51:09;;;;;;;;;;;;;;;7.19;100.00;101950.34;5588451;31;34166;-70
2022/11/11 02:54:35;;;;;;;;;;;;;;;7.18;100.00;101953.94;5579371;31;35195;-70
2022/11/11 02:58:03;;;;;;;;;;;;;;;7.10;100.00;101958.06;5590863;31;34875;-70
2022/11/11 03:01:28;;;;;;;;;;;;;;;7.10;100.00;101952.81;5590943;31;34201;-70
2022/11/11 03:04:55;;;;;;;;;;;;;;;7.10;100.00;101966.84;5579593;31;34330;-70
2022/11/11 03:08:19;;;;;;;;;;;;;;;7.10;100.00;101968.63;5576739;31;34505;-70
2022/11/11 03:11:45;;;;;;;;;;;;;;;7.11;100.00;101972.97;5579334;31;34449;-70
2022/11/11 03:15:08;;;;;;;;;;;;;;;7.18;100.00;101982.13;5590636;31;34870;-70
2022/11/11 03:18:35;;;;;;;;;;;;;;;7.14;100.00;101985.94;5590653;31;34482;-70
2022/11/11 03:22:02;;;;;;;;;;;;;;;6.99;100.00;101985.19;5579400;31;35002;-70
2022/11/11 03:25:46;;;;;;;;;;;;;;;6.98;100.00;101984.34;5590700;31;34674;-70
2022/11/11 03:29:17;;;;;;;;;;;;;;;6.98;100.00;102000.19;5590607;31;34373;-70
2022/11/11 03:32:45;;;;;;;;;;;;;;;6.97;100.00;101987.94;5590647;31;34898;-70
2022/11/11 03:36:09;;;;;;;;;;;;;;;6.89;100.00;101995.53;5576403;31;34463;-70
2022/11/11 03:39:33;;;;;;;;;;;;;;;6.79;100.00;101999.75;5576893;31;32746;-70
2022/11/11 03:42:57;;;;;;;;;;;;;;;6.66;100.00;102001.53;5590431;31;34262;-70
2022/11/11 03:46:27;;;;;;;;;;;;;;;6.73;100.00;102005.44;5590447;31;34702;-71
2022/11/11 03:49:53;;;;;;;;;;;;;;;6.68;100.00;101996.16;5590484;31;34968;-70
2022/11/11 03:53:22;;;;;;;;;;;;;;;6.54;100.00;102002.34;5590445;31;34861;-70
2022/11/11 03:56:47;;;;;;;;;;;;;;;6.44;100.00;102002.09;5590417;31;34455;-71
2022/11/11 04:00:10;;;;;;;;;;;;;;;6.36;100.00;102007.06;5576304;31;34264;-70
2022/11/11 04:11:12;;;;;;;;;;;;;;;6.15;100.00;102007.62;5576538;31;34687;-70
2022/11/11 04:18:17;;;;;;;;;;;;;;;6.02;100.00;102018.94;5590341;31;34169;-70
2022/11/11 04:22:00;;;;;;;;;;;;;;;6.08;100.00;102021.19;5590257;31;34206;-71
2022/11/11 04:32:50;;;;;;;;;;;;;;;5.99;100.00;102020.94;5576146;31;33116;-70
2022/11/11 04:36:18;;;;;;;;;;;;;;;6.02;100.00;102026.00;5578829;31;34338;-70
2022/11/11 04:43:27;;;;;;;;;;;;;;;5.98;100.00;102024.50;5590049;31;34728;-70
2022/11/11 04:46:50;;;;;;;;;;;;;;;5.87;100.00;102022.56;5589769;31;34297;-70
2022/11/11 04:50:15;;;;;;;;;;;;;;;6.00;100.00;102033.16;5589789;31;34623;-70
2022/11/11 04:53:39;;;;;;;;;;;;;;;5.97;100.00;102030.72;5589801;31;34291;-71
2022/11/11 04:57:03;;;;;;;;;;;;;;;5.93;100.00;102040.59;5575261;31;34458;-70
2022/11/11 05:00:29;;;;;;;;;;;;;;;5.84;100.00;102030.63;5578546;31;34239;-70
2022/11/11 05:03:54;;;;;;;;;;;;;;;5.81;100.00;102036.06;5564778;31;34300;-71
2022/11/11 05:11:00;;;;;;;;;;;;;;;5.81;100.00;102040.50;5589492;31;34205;-73
2022/11/11 05:21:53;;;;;;;;;;;;;;;5.34;100.00;102040.81;5575654;31;34214;-72
2022/11/11 05:25:25;;;;;;;;;;;;;;;5.25;100.00;102045.69;5589944;31;34867;-71
2022/11/11 05:28:51;;;;;;;;;;;;;;;5.19;100.00;102042.59;5589469;31;34846;-72
2022/11/11 05:32:16;;;;;;;;;;;;;;;5.15;100.00;102038.44;5589330;31;34841;-70
2022/11/11 05:35:39;;;;;;;;;;;;;;;5.02;100.00;102040.97;5589474;31;34402;-70
2022/11/11 05:39:03;;;;;;;;;;;;;;;4.91;100.00;102045.16;5589195;31;34214;-70
2022/11/11 05:42:27;;;;;;;;;;;;;;;4.80;100.00;102046.66;5589351;31;35127;-71
2022/11/11 05:45:49;;;;;;;;;;;;;;;4.72;100.00;102048.91;5589284;31;34571;-71
2022/11/11 05:49:14;;;;;;;;;;;;;;;4.71;100.00;102060.34;5588755;31;34783;-71
2022/11/11 05:52:37;;;;;;;;;;;;;;;4.72;100.00;102064.66;5589052;31;34295;-71
2022/11/11 05:56:04;;;;;;;;;;;;;;;4.73;100.00;102076.03;5588976;31;34351;-72
2022/11/11 05:59:25;;;;;;;;;;;;;;;4.86;100.00;102071.75;5575147;31;35269;-72
2022/11/11 06:02:49;;;;;;;;;;;;;;;5.03;100.00;102068.97;5588854;31;34791;-71
2022/11/11 06:06:13;;;;;;;;;;;;;;;5.01;100.00;102075.25;5588556;31;35113;-72
2022/11/11 06:09:35;;;;;;;;;;;;;;;4.98;100.00;102071.03;5588600;31;34278;-71
2022/11/11 06:13:03;;;;;;;;;;;;;;;4.92;100.00;102074.03;5577063;31;34776;-72
2022/11/11 06:16:27;;;;;;;;;;;;;;;4.95;100.00;102084.34;5574702;31;35564;-72
2022/11/11 06:19:51;;;;;;;;;;;;;;;5.05;100.00;102084.66;5588524;31;34358;-72
2022/11/11 06:23:13;;;;;;;;;;;;;;;5.06;100.00;102088.97;5576787;31;35023;-72
2022/11/11 06:26:36;;;;;;;;;;;;;;;5.02;100.00;102090.97;5589484;31;34684;-70
2022/11/11 06:29:58;;;;;;;;;;;;;;;5.01;100.00;102094.53;5565932;31;34340;-71
2022/11/11 06:33:40;;;;;;;;;;;;;;;5.02;100.00;102101.47;5591001;31;34278;-71
2022/11/11 06:37:02;;;;;;;;;;;;;;;5.08;100.00;102111.63;5590807;31;34774;-71
2022/11/11 06:40:24;;;;;;;;;;;;;;;5.23;100.00;102101.97;5590876;31;34890;-72
2022/11/11 06:43:46;;;;;;;;;;;;;;;5.41;100.00;102108.78;5590851;31;34731;-72
2022/11/11 06:47:08;;;;;;;;;;;;;;;5.52;100.00;102100.22;5579251;31;34347;-71
2022/11/11 06:50:33;;;;;;;;;;;;;;;5.55;100.00;102103.53;5576818;31;36383;-73
2022/11/11 06:53:54;;;;;;;;;;;;;;;5.60;100.00;102108.50;5576392;31;33502;-72
2022/11/11 06:57:21;;;;;;;;;;;;;;;5.63;100.00;102108.31;5576533;31;33356;-71
2022/11/11 07:00:43;;;;;;;;;;;;;;;5.73;100.00;102111.22;5579099;31;34685;-72
2022/11/11 07:04:04;;;;;;;;;;;;;;;5.91;100.00;102121.50;5578788;31;34355;-72
2022/11/11 07:07:27;;;;;;;;;;;;;;;5.92;100.00;102140.78;5590584;31;34763;-72
2022/11/11 07:10:48;;;;;;;;;;;;;;;5.99;100.00;102140.31;5590489;31;34236;-72
2022/11/11 07:14:10;;;;;;;;;;;;;;;6.10;100.00;102147.53;5590802;31;34651;-72
2022/11/11 07:17:31;;;;;;;;;;;;;;;6.15;100.00;102148.09;5590317;31;34952;-71
2022/11/11 07:20:52;;;;;;;;;;;;;;;6.21;100.00;102154.78;5576595;31;35437;-72
2022/11/11 07:24:13;;;;;;;;;;;;;;;6.28;100.00;102162.22;5565219;31;34996;-72
2022/11/11 07:27:38;;;;;;;;;;;;;;;6.32;100.00;102168.13;5590899;31;34145;-72
2022/11/11 07:31:00;;;;;;;;;;;;;;;6.40;100.00;102165.84;5576319;31;34461;-72
2022/11/11 07:34:21;;;;;;;;;;;;;;;6.48;100.00;102175.00;5576082;31;33933;-72
2022/11/11 07:37:43;;;;;;;;;;;;;;;6.52;100.00;102175.63;5589655;31;34903;-72
2022/11/11 07:41:05;;;;;;;;;;;;;;;6.58;100.00;102179.66;5590350;31;34868;-72
2022/11/11 07:44:26;;;;;;;;;;;;;;;6.66;100.00;102193.19;5589728;31;34271;-71
2022/11/11 07:47:47;;;;;;;;;;;;;;;6.74;100.00;102196.19;5590257;31;34123;-71
2022/11/11 07:51:09;;;;;;;;;;;;;;;6.81;100.00;102194.84;5590422;31;34508;-71
2022/11/11 07:54:30;;;;;;;;;;;;;;;6.82;100.00;102193.91;5589868;31;34901;-71
2022/11/11 07:57:52;;;;;;;;;;;;;;;6.86;100.00;102190.13;5578428;31;34900;-71
2022/11/11 08:01:14;;;;;;;;;;;;;;;6.92;100.00;102187.09;5589936;31;34257;-72
2022/11/11 08:04:37;;;;;;;;;;;;;;;7.00;100.00;102190.06;5578356;31;33792;-72
2022/11/11 08:08:05;;;;;;;;;;;;;;;7.09;100.00;102194.75;5578344;31;34458;-73
2022/11/11 08:15:07;;;;;;;;;;;;;;;7.36;100.00;102200.81;5590240;31;34889;-72
2022/11/11 08:18:28;;;;;;;;;;;;;;;7.49;100.00;102200.00;5578549;31;34377;-73
2022/11/11 08:21:51;;;;;;;;;;;;;;;7.59;100.00;102204.56;5589822;31;34292;-71
2022/11/11 08:25:13;;;;;;;;;;;;;;;7.69;100.00;102204.78;5578322;31;34954;-71
2022/11/11 08:28:36;;;;;;;;;;;;;;;7.77;100.00;102205.94;5590123;31;34780;-71
2022/11/11 08:31:58;;;;;;;;;;;;;;;7.93;100.00;102208.38;5589535;31;34322;-71
2022/11/11 08:35:19;;;;;;;;;;;;;;;8.12;100.00;102211.44;5589702;31;34271;-72
2022/11/11 08:38:41;;;;;;;;;;;;;;;8.29;100.00;102205.84;5578268;31;34446;-71
2022/11/11 08:42:03;;;;;;;;;;;;;;;8.52;100.00;102206.00;5589790;31;34843;-71
2022/11/11 08:45:26;;;;;;;;;;;;;;;8.67;100.00;102205.72;5578205;31;34993;-71
2022/11/11 08:48:49;;;;;;;;;;;;;;;8.88;100.00;102199.84;5589264;31;34834;-71
2022/11/11 08:52:10;;;;;;;;;;;;;;;9.16;100.00;102202.13;5576051;31;34424;-70
2022/11/11 08:55:33;;;;;;;;;;;;;;;9.23;100.00;102211.31;5578180;31;34593;-72
2022/11/11 08:58:54;;;;;;;;;;;;;;;9.27;100.00;102206.63;5589403;31;34271;-72
2022/11/11 09:02:16;;;;;;;;;;;;;;;9.43;100.00;102210.69;5564611;31;34962;-72
2022/11/11 09:05:38;;;;;;;;;;;;;;;9.59;100.00;102205.03;5589624;31;34909;-72
2022/11/11 09:09:00;;;;;;;;;;;;;;;9.77;100.00;102201.00;5575841;31;34070;-72
2022/11/11 09:12:22;;;;;;;;;;;;;;;10.02;100.00;102218.50;5589111;31;34469;-72
2022/11/11 09:15:43;;;;;;;;;;;;;;;10.26;100.00;102210.47;5575292;31;34244;-72
2022/11/11 09:19:06;;;;;;;;;;;;;;;10.43;100.00;102210.81;5589030;31;34509;-71
2022/11/11 09:22:28;;;;;;;;;;;;;;;10.62;100.00;102211.97;5577631;31;34817;-71
2022/11/11 09:25:49;;;;;;;;;;;;;;;10.78;100.00;102209.78;5575299;31;33972;-71
2022/11/11 09:29:11;;;;;;;;;;;;;;;10.98;100.00;102209.00;5589330;31;34291;-72
2022/11/11 09:32:32;;;;;;;;;;;;;;;11.27;100.00;102207.44;5575349;31;35199;-71
2022/11/11 09:35:54;;;;;;;;;;;;;;;11.41;100.00;102205.44;5575391;31;35086;-71
2022/11/11 09:39:15;;;;;;;;;;;;;;;11.47;100.00;102210.25;5588932;31;34922;-71
2022/11/11 09:42:42;;;;;;;;;;;;;;;11.37;100.00;102199.53;5575218;31;34686;-71
2022/11/11 09:46:04;;;;;;;;;;;;;;;11.08;100.00;102199.31;5588898;31;35033;-71
2022/11/11 09:49:47;;;;;;;;;;;;;;;10.84;100.00;102203.97;5575304;31;34653;-71
2022/11/11 09:53:28;;;;;;;;;;;;;;;10.78;100.00;102204.47;5575152;31;34620;-71
2022/11/11 09:56:51;;;;;;;;;;;;;;;10.75;100.00;102202.03;5588636;31;34606;-71
2022/11/11 10:00:34;;;;;;;;;;;;;;;10.80;100.00;102199.84;5574899;31;32949;-71
2022/11/11 10:04:00;;;;;;;;;;;;;;;11.00;100.00;102198.22;5591232;31;34922;-71
2022/11/11 10:07:32;;;;;;;;;;;;;;;11.21;100.00;102202.63;5576885;31;33274;-71
2022/11/11 10:10:55;;;;;;;;;;;;;;;11.47;100.00;102197.78;5577708;31;35239;-71
2022/11/11 10:14:18;;;;;;;;;;;;;;;12.00;100.00;102190.59;5591169;31;33972;-71
2022/11/11 10:17:42;;;;;;;;;;;;;;;12.79;96.85;102196.00;5590601;31;34986;-71
2022/11/11 10:21:07;;;;;;;;;;;;;;;13.00;94.24;102186.06;5576756;31;33770;-71
2022/11/11 10:24:32;;;;;;;;;;;;;;;13.18;94.23;102183.56;5590520;31;34187;-71
2022/11/11 10:28:02;;;;;;;;;;;;;;;12.74;96.42;102169.78;5580602;31;34351;-71
2022/11/11 10:31:24;;;;;;;;;;;;;;;12.56;98.12;102166.09;5590895;31;34371;-71
2022/11/11 10:34:46;;;;;;;;;;;;;;;12.76;97.79;102165.16;5576951;31;35386;-71
2022/11/11 10:38:11;;;;;;;;;;;;;;;12.51;97.91;102157.69;5590489;31;34988;-71
2022/11/11 10:41:38;;;;;;;;;;;;;;;12.77;96.03;102156.19;5590299;31;34122;-72
2022/11/11 10:45:01;;;;;;;;;;;;;;;13.09;95.14;102158.56;5590666;31;34829;-72
2022/11/11 10:48:30;;;;;;;;;;;;;;;13.51;91.37;102168.97;5580104;31;34555;-74
2022/11/11 10:51:56;;;;;;;;;;;;;;;14.22;87.59;102176.31;5577425;31;33805;-71
2022/11/11 10:55:24;;;;;;;;;;;;;;;14.86;82.11;102177.22;5590698;31;34556;-71
2022/11/11 10:58:51;;;;;;;;;;;;;;;14.98;79.59;102176.81;5590704;31;34753;-72
2022/11/11 11:02:18;;;;;;;;;;;;;;;15.21;77.50;102172.69;5591109;31;34354;-72
2022/11/11 11:05:44;;;;;;;;;;;;;;;15.58;75.51;102169.00;5576451;31;34890;-71
2022/11/11 11:09:28;;;;;;;;;;;;;;;15.46;78.22;102154.16;5590313;31;35531;-71
2022/11/11 11:13:06;;;;;;;;;;;;;;;15.26;76.41;102150.00;5590870;31;34707;-71
2022/11/11 11:16:31;;;;;;;;;;;;;;;15.17;76.34;102135.72;5576119;31;35073;-71
2022/11/11 11:20:12;;;;;;;;;;;;;;;14.99;78.03;102129.56;5578831;31;34881;-71
2022/11/11 11:23:43;;;;;;;;;;;;;;;14.37;82.13;102128.63;5590309;31;34924;-71
2022/11/11 11:27:06;;;;;;;;;;;;;;;15.40;76.16;102136.91;5576501;31;33042;-71
2022/11/11 11:30:28;;;;;;;;;;;;;;;15.65;74.09;102141.44;5590503;31;34570;-71
2022/11/11 11:33:51;;;;;;;;;;;;;;;15.43;75.28;102133.94;5590515;31;34454;-72
2022/11/11 11:37:13;;;;;;;;;;;;;;;15.37;76.55;102134.53;5590281;31;34491;-71
2022/11/11 11:40:48;;;;;;;;;;;;;;;15.13;77.98;102131.69;5590523;31;34954;-71
2022/11/11 11:44:27;;;;;;;;;;;;;;;14.54;80.17;102129.63;5576513;31;34264;-71
2022/11/11 11:48:13;;;;;;;;;;;;;;;14.55;80.39;102134.81;5578601;31;34319;-71
2022/11/11 11:51:59;;;;;;;;;;;;;;;14.42;80.88;102144.19;5576279;31;34289;-72
2022/11/11 11:55:23;;;;;;;;;;;;;;;14.12;81.44;102139.97;5578384;31;34224;-71
2022/11/11 11:58:59;;;;;;;;;;;;;;;13.88;83.42;102141.34;5567358;31;34211;-71
2022/11/11 12:02:34;;;;;;;;;;;;;;;13.90;83.38;102138.50;5578684;31;34304;-70
2022/11/11 12:06:31;;;;;;;;;;;;;;;13.91;82.45;102140.19;5578150;31;35088;-69
2022/11/11 12:09:59;;;;;;;;;;;;;;;13.80;83.11;102148.37;5520950;31;34134;-70
2022/11/11 12:13:26;;;;;;;;;;;;;;;13.40;85.79;102146.81;5569339;32;34939;-70
2022/11/11 12:16:51;;;;;;;;;;;;;;;13.31;85.08;102146.81;5569671;32;35462;-72
2022/11/11 12:20:19;;;;;;;;;;;;;;;13.15;86.37;102149.22;5570445;32;34635;-72
2022/11/11 12:23:43;;;;;;;;;;;;;;;13.13;87.28;102144.03;5570404;32;34818;-71
2022/11/11 12:27:06;;;;;;;;;;;;;;;12.94;88.44;102138.66;5570829;32;34843;-71
2022/11/11 12:30:29;;;;;;;;;;;;;;;12.76;88.00;102148.34;5569458;32;34378;-70
2022/11/11 12:34:06;;;;;;;;;;;;;;;12.72;87.25;102149.59;5569732;32;33496;-70
2022/11/11 12:37:38;;;;;;;;;;;;;;;12.78;87.43;102151.72;5570453;32;34494;-70
2022/11/11 12:41:19;;;;;;;;;;;;;;;12.86;87.75;102155.37;5569622;32;34418;-70
2022/11/11 12:44:49;;;;;;;;;;;;;;;12.84;86.25;102151.13;5565615;32;34602;-70
2022/11/11 12:48:29;;;;;;;;;;;;;;;12.94;86.85;102146.66;5569656;32;35177;-70
2022/11/11 12:51:59;;;;;;;;;;;;;;;12.97;85.13;102125.91;5570109;32;34203;-70
2022/11/11 12:55:47;;;;;;;;;;;;;;;12.86;85.75;102147.38;5569177;32;33741;-70
2022/11/11 12:59:24;;;;;;;;;;;;;;;12.82;86.05;102156.63;5569201;32;34217;-71
2022/11/11 13:03:05;;;;;;;;;;;;;;;12.63;86.90;102146.75;5569654;32;34889;-70
2022/11/11 13:06:42;;;;;;;;;;;;;;;12.77;87.71;102137.56;5569827;32;34296;-70
2022/11/11 13:10:24;;;;;;;;;;;;;;;13.37;84.14;102123.09;5569430;32;34653;-72
2022/11/11 13:13:52;;;;;;;;;;;;;;;13.70;80.10;102113.72;5588046;31;34871;-71
2022/11/11 13:17:14;;;;;;;;;;;;;;;13.35;81.59;102111.75;5589281;31;34541;-71
2022/11/11 13:20:35;;;;;;;;;;;;;;;13.40;80.87;102109.50;5589686;31;34796;-69
2022/11/11 13:23:57;;;;;;;;;;;;;;;13.24;82.25;102111.06;5577657;31;34276;-69
2022/11/11 13:27:24;;;;;;;;;;;;;;;13.33;82.47;102119.03;5589328;31;34640;-71
2022/11/11 13:31:06;;;;;;;;;;;;;;;13.42;81.14;102125.31;5575503;31;35485;-69
2022/11/11 13:34:33;;;;;;;;;;;;;;;13.17;82.65;102128.59;5575377;31;34445;-69
2022/11/11 13:37:57;;;;;;;;;;;;;;;13.10;84.71;102130.12;5565769;31;34860;-68
2022/11/11 13:41:22;;;;;;;;;;;;;;;12.88;87.08;102126.75;5589088;31;34324;-70
2022/11/11 13:44:55;;;;;;;;;;;;;;;12.72;89.12;102113.16;5589095;31;34184;-70
2022/11/11 13:48:19;;;;;;;;;;;;;;;12.54;92.17;102107.66;5588968;31;34796;-70
2022/11/11 13:51:42;;;;;;;;;;;;;;;12.53;92.51;102100.69;5574832;31;33423;-69
2022/11/11 13:55:08;;;;;;;;;;;;;;;12.41;93.65;102100.94;5589086;31;34206;-69
2022/11/11 13:58:38;;;;;;;;;;;;;;;12.45;94.07;102099.66;5588831;31;34729;-69
2022/11/11 14:02:15;;;;;;;;;;;;;;;12.38;95.03;102103.88;5588780;31;34390;-69
2022/11/11 14:05:38;;;;;;;;;;;;;;;12.35;96.22;102099.66;5588628;31;34276;-69
2022/11/11 14:09:00;;;;;;;;;;;;;;;12.32;95.94;102091.09;5576974;31;34809;-69
2022/11/11 14:12:33;;;;;;;;;;;;;;;12.22;96.99;102087.59;5588104;31;34235;-70
2022/11/11 14:15:57;;;;;;;;;;;;;;;12.19;98.04;102097.53;5588185;31;34881;-70
2022/11/11 14:19:20;;;;;;;;;;;;;;;12.14;98.26;102094.44;5575256;31;34412;-69
2022/11/11 14:22:42;;;;;;;;;;;;;;;12.09;98.31;102102.00;5588065;31;34364;-69
2022/11/11 14:26:05;;;;;;;;;;;;;;;11.93;99.32;102095.47;5574127;31;35456;-69
2022/11/11 14:29:33;;;;;;;;;;;;;;;11.77;100.00;102088.84;5587721;31;34054;-68
2022/11/11 14:33:04;;;;;;;;;;;;;;;11.72;100.00;102082.22;5574448;31;33179;-69
2022/11/11 14:36:33;;;;;;;;;;;;;;;11.78;100.00;102076.41;5587703;31;34274;-69
2022/11/11 14:39:54;;;;;;;;;;;;;;;11.63;100.00;102075.88;5587669;31;34879;-69
2022/11/11 14:43:31;;;;;;;;;;;;;;;11.56;100.00;102068.59;5576093;31;34900;-70
2022/11/11 14:47:07;;;;;;;;;;;;;;;11.45;100.00;102069.50;5574201;31;36808;-68
2022/11/11 14:50:32;;;;;;;;;;;;;;;11.37;100.00;102068.50;5590625;31;34446;-68
2022/11/11 14:53:56;;;;;;;;;;;;;;;11.28;100.00;102068.28;5590330;31;34298;-69
2022/11/11 14:57:20;;;;;;;;;;;;;;;11.39;100.00;102072.69;5576304;31;33057;-69
2022/11/11 15:00:51;;;;;;;;;;;;;;;11.34;100.00;102075.75;5576339;31;35937;-69
2022/11/11 15:04:14;;;;;;;;;;;;;;;11.18;100.00;102070.03;5590301;31;34840;-69
2022/11/11 15:07:44;;;;;;;;;;;;;;;10.98;100.00;102070.91;5589911;31;34604;-69
2022/11/11 15:11:18;;;;;;;;;;;;;;;10.85;100.00;102068.41;5576096;31;34418;-69
2022/11/11 15:14:46;;;;;;;;;;;;;;;10.78;100.00;102075.22;5590086;31;34922;-69
2022/11/11 15:18:24;;;;;;;;;;;;;;;10.79;100.00;102073.41;5576015;31;35605;-69
2022/11/11 15:22:04;;;;;;;;;;;;;;;10.64;100.00;102078.19;5589946;31;34345;-69
2022/11/11 15:25:26;;;;;;;;;;;;;;;10.56;100.00;102071.81;5589977;31;34685;-70
2022/11/11 15:29:07;;;;;;;;;;;;;;;10.42;100.00;102071.13;5590226;31;34211;-70
2022/11/11 15:32:48;;;;;;;;;;;;;;;10.37;100.00;102067.16;5578510;31;35066;-69
2022/11/11 15:36:35;;;;;;;;;;;;;;;10.15;100.00;102068.06;5576174;31;35418;-69
2022/11/11 15:39:57;;;;;;;;;;;;;;;10.19;100.00;102072.16;5589706;31;34874;-69
2022/11/11 15:43:23;;;;;;;;;;;;;;;10.07;100.00;102073.13;5589467;31;34266;-69
2022/11/11 15:46:48;;;;;;;;;;;;;;;9.96;100.00;102079.31;5575202;31;35405;-69
2022/11/11 15:50:27;;;;;;;;;;;;;;;9.93;100.00;102091.94;5575023;31;33084;-69
2022/11/11 15:53:50;;;;;;;;;;;;;;;9.93;100.00;102081.31;5564416;31;34750;-69
2022/11/11 15:57:22;;;;;;;;;;;;;;;10.02;100.00;102080.63;5575473;31;35500;-70
2022/11/11 16:00:45;;;;;;;;;;;;;;;9.80;100.00;102085.94;5575291;31;35112;-69
2022/11/11 16:04:10;;;;;;;;;;;;;;;10.04;100.00;102091.94;5589546;31;34958;-70
2022/11/11 16:07:54;;;;;;;;;;;;;;;9.96;100.00;102095.22;5576137;31;35529;-69
2022/11/11 16:11:19;;;;;;;;;;;;;;;9.84;100.00;102097.97;5588518;31;35053;-69
2022/11/11 16:14:45;;;;;;;;;;;;;;;9.79;100.00;102103.63;5574892;31;34321;-70
2022/11/11 16:18:16;;;;;;;;;;;;;;;9.69;100.00;102100.00;5577297;31;34263;-70
2022/11/11 16:21:43;;;;;;;;;;;;;;;9.66;100.00;102092.31;5589625;31;34319;-70
2022/11/11 16:25:18;;;;;;;;;;;;;;;9.64;100.00;102088.09;5565475;31;34630;-70
2022/11/11 16:28:40;;;;;;;;;;;;;;;9.65;100.00;102087.13;5589950;31;34991;-70
2022/11/11 16:32:17;;;;;;;;;;;;;;;9.64;100.00;102091.59;5575794;31;34795;-69
2022/11/11 16:35:40;;;;;;;;;;;;;;;9.55;100.00;102095.81;5578295;31;34182;-70
2022/11/11 16:39:19;;;;;;;;;;;;;;;9.47;100.00;102090.25;5589740;31;34885;-70
2022/11/11 16:42:41;;;;;;;;;;;;;;;9.50;100.00;102083.88;5589853;31;34917;-70
2022/11/11 16:46:05;;;;;;;;;;;;;;;9.23;100.00;102092.16;5575808;31;34746;-70
2022/11/11 16:49:31;;;;;;;;;;;;;;;9.06;100.00;102081.97;5578127;31;34605;-70
2022/11/11 16:52:55;;;;;;;;;;;;;;;8.85;100.00;102079.19;5589507;31;34822;-70
2022/11/11 16:56:29;;;;;;;;;;;;;;;8.81;100.00;102076.88;5589898;31;34096;-70
2022/11/11 16:59:55;;;;;;;;;;;;;;;8.70;100.00;102088.25;5575958;31;33298;-70
2022/11/11 17:03:25;;;;;;;;;;;;;;;8.58;100.00;102094.44;5578404;31;34785;-70
2022/11/11 17:07:00;;;;;;;;;;;;;;;8.59;100.00;102083.75;5575335;31;35224;-70
2022/11/11 17:10:24;;;;;;;;;;;;;;;8.59;100.00;102090.84;5589536;31;34778;-70
2022/11/11 17:13:47;;;;;;;;;;;;;;;8.60;100.00;102081.97;5589461;31;34962;-70
2022/11/11 17:17:09;;;;;;;;;;;;;;;8.51;100.00;102080.84;5575508;31;34202;-70
2022/11/11 17:20:32;;;;;;;;;;;;;;;8.50;100.00;102078.31;5564560;31;34749;-70
2022/11/11 17:23:55;;;;;;;;;;;;;;;8.47;100.00;102070.59;5575461;31;35779;-70
2022/11/11 17:27:19;;;;;;;;;;;;;;;8.48;100.00;102072.28;5589517;31;34133;-70
2022/11/11 17:30:45;;;;;;;;;;;;;;;8.41;100.00;102077.19;5589346;31;34647;-70
2022/11/11 17:34:08;;;;;;;;;;;;;;;8.62;100.00;102067.66;5577812;31;34724;-70
2022/11/11 17:37:34;;;;;;;;;;;;;;;8.85;100.00;102052.72;5589286;31;34837;-70
2022/11/11 17:41:00;;;;;;;;;;;;;;;8.89;100.00;102059.47;5589468;31;34288;-70
2022/11/11 17:44:24;;;;;;;;;;;;;;;9.00;100.00;102062.16;5575164;31;32881;-71
2022/11/11 17:47:49;;;;;;;;;;;;;;;9.10;100.00;102057.00;5589080;31;34365;-69
2022/11/11 17:51:16;;;;;;;;;;;;;;;9.26;100.00;102048.69;5589058;31;34787;-69
2022/11/11 17:54:39;;;;;;;;;;;;;;;9.13;100.00;102047.00;5588956;31;35090;-69
2022/11/11 17:58:05;;;;;;;;;;;;;;;9.21;100.00;102048.19;5575191;31;32665;-70
2022/11/11 18:01:31;;;;;;;;;;;;;;;9.43;100.00;102046.44;5588908;31;34740;-69
2022/11/11 18:04:56;;;;;;;;;;;;;;;9.39;100.00;102044.97;5588723;31;34327;-69
2022/11/11 18:08:20;;;;;;;;;;;;;;;9.38;100.00;102048.59;5589037;31;34861;-70
2022/11/11 18:11:42;;;;;;;;;;;;;;;9.44;100.00;102040.16;5574369;31;34363;-71
2022/11/11 18:15:05;;;;;;;;;;;;;;;9.42;100.00;102031.50;5588296;31;34833;-69
2022/11/11 18:18:26;;;;;;;;;;;;;;;9.29;100.00;102030.78;5588085;31;34254;-69
2022/11/11 18:21:48;;;;;;;;;;;;;;;9.28;100.00;102036.19;5588550;31;34477;-69
2022/11/11 18:25:11;;;;;;;;;;;;;;;9.23;100.00;102019.81;5577389;31;35171;-70
2022/11/11 18:28:34;;;;;;;;;;;;;;;9.16;100.00;102022.91;5576987;31;33180;-69
2022/11/11 18:31:57;;;;;;;;;;;;;;;9.27;100.00;102024.75;5566394;31;33428;-70
2022/11/11 18:35:19;;;;;;;;;;;;;;;9.35;100.00;102022.34;5577332;31;32775;-70
2022/11/11 18:38:45;;;;;;;;;;;;;;;9.43;100.00;102017.28;5577109;31;33583;-70
2022/11/11 18:42:11;;;;;;;;;;;;;;;9.47;100.00;102029.34;5576886;31;33379;-70